CVLO2: Caney R. Collinsville,Ok

                                SHEF ID:       CVLO2     Caney River near Collinsville, O
STATION TYPE:
Regulating: Stage = 26.00, Flow = 13763

PRECIP STAGE RIV-FLOW BAT-LOAD
in ft cfs volt
Ccp-Rev Ccp-Rev Ccp-Rev Ccp-Rev
(America/Chicago)
05/01 00:00 0.00 11.59 2905 12.40
05/01 01:00 0.00 11.58 2898 12.38
05/01 02:00 0.00 11.56 2883 12.37
05/01 03:00 0.00 11.56 2883 12.34
05/01 04:00 0.00 11.54 2869 12.31
05/01 05:00 0.00 11.53 2862 12.28
05/01 06:00 0.00 11.51 2848 12.26
05/01 07:00 0.00 11.50 2841 12.24
05/01 08:00 0.00 11.46 2813 12.26
05/01 09:00 0.00 11.42 2784 12.34
05/01 10:00 0.00 11.39 2763 12.64
05/01 11:00 0.00 11.34 2728 12.76
05/01 12:00 0.00 11.28 2686 12.75
05/01 13:00 0.00 11.22 2644 12.73
05/01 14:00 0.00 11.17 2610 12.90
05/01 15:00 0.00 11.11 2568 12.87
05/01 16:00 0.00 11.04 2520 12.84
05/01 17:00 0.00 10.97 2472 12.82
05/01 18:00 0.00 10.90 2424 12.76
05/01 19:00 0.00 10.82 2370 12.75
05/01 20:00 0.00 10.75 2322 12.50
05/01 21:00 0.00 10.68 2275 12.44
05/01 22:00 0.00 10.61 2229 12.44
05/01 23:00 ---- 10.55 2189 12.43
Data processed at Sat 02May2026 04:44 GMT

NOTICE: If you are parsing this page

Please convert to using our Data API. Starting early 2026 we will be migrating to: https://water.usace.army.mil with modern pages rendered in JavaScript. When this migration completes you will no longer be able to scrape this page! CWMSDataAPI (CDA)

Timeseries IDs (TSIDs)

TSIDs used from left to right in the data table
COLL.Precip-Inc.Total.1Hour.1Hour.Ccp-Rev
COLL.Stage.Inst.1Hour.0.Ccp-Rev
COLL.Flow.Inst.1Hour.0.Ccp-Rev
COLL.Volt-Battery Load.Inst.1Hour.0.Ccp-Rev

                            

All information presented herein is the property of the government of the United States of America and may be revised or deleted at any time without prior notice. Dissemination of this information without the expressed written consent of the Public Affairs Office, Tulsa District U.S. Army Corps of Engineers is strictly prohibited. These data are gathered electronically and, as presented, have NOT undergone any form of quality control. These data are NOT guaranteed to be valid or correct.